sensor_id;sensor_type;location;lat;lon;timestamp;temperature;humidity
2042;DHT22;1026;51.460;7.252;2023-03-01T00:00:14;1.60;90.50
2042;DHT22;1026;51.460;7.252;2023-03-01T00:02:40;1.60;90.50
2042;DHT22;1026;51.460;7.252;2023-03-01T00:05:06;1.60;90.50
2042;DHT22;1026;51.460;7.252;2023-03-01T00:07:33;1.50;90.40
2042;DHT22;1026;51.460;7.252;2023-03-01T00:09:58;1.60;90.50
2042;DHT22;1026;51.460;7.252;2023-03-01T00:12:24;1.60;90.50
2042;DHT22;1026;51.460;7.252;2023-03-01T00:14:50;1.60;90.50
2042;DHT22;1026;51.460;7.252;2023-03-01T00:17:15;1.60;90.50
2042;DHT22;1026;51.460;7.252;2023-03-01T00:19:41;1.60;90.50
2042;DHT22;1026;51.460;7.252;2023-03-01T00:22:07;1.60;90.50
2042;DHT22;1026;51.460;7.252;2023-03-01T00:24:32;1.60;90.50
2042;DHT22;1026;51.460;7.252;2023-03-01T00:26:58;1.50;90.40
2042;DHT22;1026;51.460;7.252;2023-03-01T00:29:24;1.60;90.50
2042;DHT22;1026;51.460;7.252;2023-03-01T00:31:50;1.60;90.40
2042;DHT22;1026;51.460;7.252;2023-03-01T00:34:16;1.60;90.50
2042;DHT22;1026;51.460;7.252;2023-03-01T00:36:41;1.50;90.40
2042;DHT22;1026;51.460;7.252;2023-03-01T00:39:11;1.60;90.50
2042;DHT22;1026;51.460;7.252;2023-03-01T00:41:37;1.50;90.40
2042;DHT22;1026;51.460;7.252;2023-03-01T00:44:03;1.50;90.40
2042;DHT22;1026;51.460;7.252;2023-03-01T00:46:29;1.50;90.40
2042;DHT22;1026;51.460;7.252;2023-03-01T00:48:56;1.50;90.40
2042;DHT22;1026;51.460;7.252;2023-03-01T00:51:25;1.50;90.40
2042;DHT22;1026;51.460;7.252;2023-03-01T00:53:52;1.50;90.40
2042;DHT22;1026;51.460;7.252;2023-03-01T00:56:19;1.50;90.40
2042;DHT22;1026;51.460;7.252;2023-03-01T00:58:44;1.50;90.40
2042;DHT22;1026;51.460;7.252;2023-03-01T01:01:14;1.30;90.30
2042;DHT22;1026;51.460;7.252;2023-03-01T01:03:49;1.50;90.40
2042;DHT22;1026;51.460;7.252;2023-03-01T01:06:18;1.50;90.40
2042;DHT22;1026;51.460;7.252;2023-03-01T01:08:44;1.50;90.40
2042;DHT22;1026;51.460;7.252;2023-03-01T01:11:11;1.50;90.40
2042;DHT22;1026;51.460;7.252;2023-03-01T01:13:37;1.40;90.40
2042;DHT22;1026;51.460;7.252;2023-03-01T01:16:03;1.40;90.40
2042;DHT22;1026;51.460;7.252;2023-03-01T01:18:29;1.40;90.30
2042;DHT22;1026;51.460;7.252;2023-03-01T01:20:55;1.40;90.30
2042;DHT22;1026;51.460;7.252;2023-03-01T01:23:21;1.40;90.30
2042;DHT22;1026;51.460;7.252;2023-03-01T01:25:46;1.40;90.30
2042;DHT22;1026;51.460;7.252;2023-03-01T01:28:19;1.30;90.30
2042;DHT22;1026;51.460;7.252;2023-03-01T01:30:44;1.40;90.30
2042;DHT22;1026;51.460;7.252;2023-03-01T01:33:10;1.40;90.30
2042;DHT22;1026;51.460;7.252;2023-03-01T01:35:35;1.40;90.30
2042;DHT22;1026;51.460;7.252;2023-03-01T01:38:01;1.40;90.30
2042;DHT22;1026;51.460;7.252;2023-03-01T01:40:27;1.40;90.30
2042;DHT22;1026;51.460;7.252;2023-03-01T01:42:52;1.30;90.20
2042;DHT22;1026;51.460;7.252;2023-03-01T01:45:34;1.30;90.30
2042;DHT22;1026;51.460;7.252;2023-03-01T01:48:09;1.20;90.20
2042;DHT22;1026;51.460;7.252;2023-03-01T01:50:39;1.30;90.30
2042;DHT22;1026;51.460;7.252;2023-03-01T01:53:11;1.30;90.30
2042;DHT22;1026;51.460;7.252;2023-03-01T01:55:42;1.30;90.20
2042;DHT22;1026;51.460;7.252;2023-03-01T01:58:11;1.30;90.20
2042;DHT22;1026;51.460;7.252;2023-03-01T02:00:39;1.30;90.20
2042;DHT22;1026;51.460;7.252;2023-03-01T02:03:09;1.30;90.20
2042;DHT22;1026;51.460;7.252;2023-03-01T02:05:53;1.30;90.60
2042;DHT22;1026;51.460;7.252;2023-03-01T02:08:26;1.30;90.20
2042;DHT22;1026;51.460;7.252;2023-03-01T02:10:53;1.30;90.20
2042;DHT22;1026;51.460;7.252;2023-03-01T02:13:20;1.30;90.20
2042;DHT22;1026;51.460;7.252;2023-03-01T02:15:45;1.20;90.20
2042;DHT22;1026;51.460;7.252;2023-03-01T02:18:14;1.30;90.20
2042;DHT22;1026;51.460;7.252;2023-03-01T02:23:23;1.20;90.20
2042;DHT22;1026;51.460;7.252;2023-03-01T02:25:56;1.20;90.20
2042;DHT22;1026;51.460;7.252;2023-03-01T02:28:29;1.20;90.20
2042;DHT22;1026;51.460;7.252;2023-03-01T02:30:54;1.20;90.20
2042;DHT22;1026;51.460;7.252;2023-03-01T02:33:38;1.20;90.50
2042;DHT22;1026;51.460;7.252;2023-03-01T02:36:07;1.20;90.20
2042;DHT22;1026;51.460;7.252;2023-03-01T02:38:34;1.20;90.20
2042;DHT22;1026;51.460;7.252;2023-03-01T02:41:00;1.20;90.20
2042;DHT22;1026;51.460;7.252;2023-03-01T02:43:31;1.10;90.10
2042;DHT22;1026;51.460;7.252;2023-03-01T02:45:59;1.20;90.20
2042;DHT22;1026;51.460;7.252;2023-03-01T02:48:27;1.20;90.20
2042;DHT22;1026;51.460;7.252;2023-03-01T02:53:47;1.10;90.10
2042;DHT22;1026;51.460;7.252;2023-03-01T02:56:14;1.10;90.10
2042;DHT22;1026;51.460;7.252;2023-03-01T02:58:41;1.10;90.10
2042;DHT22;1026;51.460;7.252;2023-03-01T03:01:12;1.10;90.10
2042;DHT22;1026;51.460;7.252;2023-03-01T03:03:40;1.10;90.10
2042;DHT22;1026;51.460;7.252;2023-03-01T03:06:06;1.10;90.10
2042;DHT22;1026;51.460;7.252;2023-03-01T03:08:32;1.10;90.10
2042;DHT22;1026;51.460;7.252;2023-03-01T03:10:57;1.10;90.10
2042;DHT22;1026;51.460;7.252;2023-03-01T03:13:23;1.10;90.10
2042;DHT22;1026;51.460;7.252;2023-03-01T03:15:55;1.10;90.10
2042;DHT22;1026;51.460;7.252;2023-03-01T03:18:21;1.00;90.10
2042;DHT22;1026;51.460;7.252;2023-03-01T03:20:47;1.00;90.10
2042;DHT22;1026;51.460;7.252;2023-03-01T03:23:13;1.00;90.10
2042;DHT22;1026;51.460;7.252;2023-03-01T03:25:39;1.00;90.10
2042;DHT22;1026;51.460;7.252;2023-03-01T03:28:06;1.00;90.00
2042;DHT22;1026;51.460;7.252;2023-03-01T03:30:38;1.00;90.00
2042;DHT22;1026;51.460;7.252;2023-03-01T03:33:05;0.90;90.00
2042;DHT22;1026;51.460;7.252;2023-03-01T03:35:33;1.00;90.00
2042;DHT22;1026;51.460;7.252;2023-03-01T03:38:03;1.00;90.00
2042;DHT22;1026;51.460;7.252;2023-03-01T03:40:40;1.00;90.00
2042;DHT22;1026;51.460;7.252;2023-03-01T03:43:09;1.00;90.00
2042;DHT22;1026;51.460;7.252;2023-03-01T03:45:36;1.00;90.10
2042;DHT22;1026;51.460;7.252;2023-03-01T03:48:04;1.00;90.00
2042;DHT22;1026;51.460;7.252;2023-03-01T03:50:30;1.00;90.00
2042;DHT22;1026;51.460;7.252;2023-03-01T03:52:56;0.90;90.00
2042;DHT22;1026;51.460;7.252;2023-03-01T03:55:22;0.90;90.00
2042;DHT22;1026;51.460;7.252;2023-03-01T03:57:48;0.90;90.00
2042;DHT22;1026;51.460;7.252;2023-03-01T04:00:21;0.90;90.00
2042;DHT22;1026;51.460;7.252;2023-03-01T04:02:49;0.90;90.00
2042;DHT22;1026;51.460;7.252;2023-03-01T04:05:18;0.90;90.00
2042;DHT22;1026;51.460;7.252;2023-03-01T04:07:44;0.90;90.00
2042;DHT22;1026;51.460;7.252;2023-03-01T04:10:14;0.90;90.00
2042;DHT22;1026;51.460;7.252;2023-03-01T04:12:39;0.90;90.00
2042;DHT22;1026;51.460;7.252;2023-03-01T04:15:07;0.90;90.00
2042;DHT22;1026;51.460;7.252;2023-03-01T04:17:41;0.80;89.90
2042;DHT22;1026;51.460;7.252;2023-03-01T04:20:10;0.80;89.90
2042;DHT22;1026;51.460;7.252;2023-03-01T04:22:37;0.90;90.00
2042;DHT22;1026;51.460;7.252;2023-03-01T04:25:03;0.80;89.90
2042;DHT22;1026;51.460;7.252;2023-03-01T04:27:30;0.80;89.80
2042;DHT22;1026;51.460;7.252;2023-03-01T04:29:55;0.80;89.80
2042;DHT22;1026;51.460;7.252;2023-03-01T04:32:21;0.80;89.80
2042;DHT22;1026;51.460;7.252;2023-03-01T04:34:47;0.80;89.80
2042;DHT22;1026;51.460;7.252;2023-03-01T04:37:12;0.80;89.80
2042;DHT22;1026;51.460;7.252;2023-03-01T04:39:38;0.80;89.80
2042;DHT22;1026;51.460;7.252;2023-03-01T04:42:11;0.80;89.80
2042;DHT22;1026;51.460;7.252;2023-03-01T04:44:37;0.70;89.70
2042;DHT22;1026;51.460;7.252;2023-03-01T04:47:03;0.80;89.80
2042;DHT22;1026;51.460;7.252;2023-03-01T04:49:28;0.70;89.70
2042;DHT22;1026;51.460;7.252;2023-03-01T04:51:54;0.70;89.70
2042;DHT22;1026;51.460;7.252;2023-03-01T04:54:20;0.70;89.70
2042;DHT22;1026;51.460;7.252;2023-03-01T04:56:46;0.70;89.60
2042;DHT22;1026;51.460;7.252;2023-03-01T04:59:11;0.70;89.60
2042;DHT22;1026;51.460;7.252;2023-03-01T05:01:38;0.70;89.60
2042;DHT22;1026;51.460;7.252;2023-03-01T05:04:11;0.70;89.60
2042;DHT22;1026;51.460;7.252;2023-03-01T05:06:38;0.70;89.70
2042;DHT22;1026;51.460;7.252;2023-03-01T05:09:10;0.70;89.60
2042;DHT22;1026;51.460;7.252;2023-03-01T05:11:37;0.70;89.60
2042;DHT22;1026;51.460;7.252;2023-03-01T05:14:04;0.70;89.70
2042;DHT22;1026;51.460;7.252;2023-03-01T05:16:30;0.70;89.70
2042;DHT22;1026;51.460;7.252;2023-03-01T05:18:56;0.70;89.60
2042;DHT22;1026;51.460;7.252;2023-03-01T05:21:22;0.60;89.60
2042;DHT22;1026;51.460;7.252;2023-03-01T05:23:48;0.60;89.50
2042;DHT22;1026;51.460;7.252;2023-03-01T05:26:16;0.50;89.40
2042;DHT22;1026;51.460;7.252;2023-03-01T05:28:43;0.60;89.50
2042;DHT22;1026;51.460;7.252;2023-03-01T05:31:08;0.60;89.60
2042;DHT22;1026;51.460;7.252;2023-03-01T05:33:37;0.50;89.50
2042;DHT22;1026;51.460;7.252;2023-03-01T05:36:03;0.50;89.50
2042;DHT22;1026;51.460;7.252;2023-03-01T05:38:29;0.60;89.50
2042;DHT22;1026;51.460;7.252;2023-03-01T05:40:55;0.60;89.50
2042;DHT22;1026;51.460;7.252;2023-03-01T05:43:21;0.60;89.50
2042;DHT22;1026;51.460;7.252;2023-03-01T05:45:46;0.40;90.00
2042;DHT22;1026;51.460;7.252;2023-03-01T05:48:12;0.60;89.50
2042;DHT22;1026;51.460;7.252;2023-03-01T05:50:42;0.50;89.50
2042;DHT22;1026;51.460;7.252;2023-03-01T05:53:18;0.50;89.40
2042;DHT22;1026;51.460;7.252;2023-03-01T05:55:45;0.50;89.40
2042;DHT22;1026;51.460;7.252;2023-03-01T05:58:15;0.50;89.50
2042;DHT22;1026;51.460;7.252;2023-03-01T06:00:43;0.50;89.50
2042;DHT22;1026;51.460;7.252;2023-03-01T06:03:11;0.50;89.50
2042;DHT22;1026;51.460;7.252;2023-03-01T06:05:38;0.50;90.00
2042;DHT22;1026;51.460;7.252;2023-03-01T06:08:04;0.50;89.50
2042;DHT22;1026;51.460;7.252;2023-03-01T06:10:30;0.50;89.50
2042;DHT22;1026;51.460;7.252;2023-03-01T06:12:56;0.40;89.40
2042;DHT22;1026;51.460;7.252;2023-03-01T06:15:22;0.30;89.30
2042;DHT22;1026;51.460;7.252;2023-03-01T06:17:49;0.40;89.40
2042;DHT22;1026;51.460;7.252;2023-03-01T06:20:19;0.40;89.40
2042;DHT22;1026;51.460;7.252;2023-03-01T06:22:45;0.40;89.40
2042;DHT22;1026;51.460;7.252;2023-03-01T06:25:13;0.40;89.40
2042;DHT22;1026;51.460;7.252;2023-03-01T06:27:39;0.30;89.30
2042;DHT22;1026;51.460;7.252;2023-03-01T06:30:05;0.40;89.40
2042;DHT22;1026;51.460;7.252;2023-03-01T06:32:32;0.40;89.40
2042;DHT22;1026;51.460;7.252;2023-03-01T06:34:58;0.40;89.40
2042;DHT22;1026;51.460;7.252;2023-03-01T06:37:25;0.40;89.50
2042;DHT22;1026;51.460;7.252;2023-03-01T06:39:51;0.30;89.30
2042;DHT22;1026;51.460;7.252;2023-03-01T06:42:16;0.40;89.50
2042;DHT22;1026;51.460;7.252;2023-03-01T06:44:43;0.40;89.50
2042;DHT22;1026;51.460;7.252;2023-03-01T06:47:09;0.30;89.30
2042;DHT22;1026;51.460;7.252;2023-03-01T06:49:34;0.30;89.30
2042;DHT22;1026;51.460;7.252;2023-03-01T06:52:00;0.30;89.30
2042;DHT22;1026;51.460;7.252;2023-03-01T06:54:26;0.30;89.30
2042;DHT22;1026;51.460;7.252;2023-03-01T06:56:52;0.30;89.30
2042;DHT22;1026;51.460;7.252;2023-03-01T06:59:18;0.30;89.30
2042;DHT22;1026;51.460;7.252;2023-03-01T07:01:44;0.30;89.40
2042;DHT22;1026;51.460;7.252;2023-03-01T07:04:11;0.30;89.40
2042;DHT22;1026;51.460;7.252;2023-03-01T07:06:38;0.30;89.40
2042;DHT22;1026;51.460;7.252;2023-03-01T07:09:03;0.30;89.40
2042;DHT22;1026;51.460;7.252;2023-03-01T07:11:29;0.30;89.40
2042;DHT22;1026;51.460;7.252;2023-03-01T07:13:55;0.30;89.40
2042;DHT22;1026;51.460;7.252;2023-03-01T07:16:21;0.30;89.40
2042;DHT22;1026;51.460;7.252;2023-03-01T07:18:46;0.30;89.40
2042;DHT22;1026;51.460;7.252;2023-03-01T07:21:13;0.30;89.40
2042;DHT22;1026;51.460;7.252;2023-03-01T07:23:39;0.20;89.40
2042;DHT22;1026;51.460;7.252;2023-03-01T07:26:19;0.20;89.30
2042;DHT22;1026;51.460;7.252;2023-03-01T07:28:51;0.20;89.40
2042;DHT22;1026;51.460;7.252;2023-03-01T07:31:17;0.20;89.30
2042;DHT22;1026;51.460;7.252;2023-03-01T07:33:42;0.20;89.30
2042;DHT22;1026;51.460;7.252;2023-03-01T07:36:09;0.20;89.30
2042;DHT22;1026;51.460;7.252;2023-03-01T07:38:34;0.20;89.30
2042;DHT22;1026;51.460;7.252;2023-03-01T07:41:01;0.20;89.40
2042;DHT22;1026;51.460;7.252;2023-03-01T07:43:29;0.20;89.40
2042;DHT22;1026;51.460;7.252;2023-03-01T07:45:58;0.20;89.40
2042;DHT22;1026;51.460;7.252;2023-03-01T07:48:23;0.20;89.40
2042;DHT22;1026;51.460;7.252;2023-03-01T07:50:49;0.20;89.40
2042;DHT22;1026;51.460;7.252;2023-03-01T07:53:15;0.20;89.50
2042;DHT22;1026;51.460;7.252;2023-03-01T07:55:40;0.20;89.50
2042;DHT22;1026;51.460;7.252;2023-03-01T07:58:06;0.20;89.50
2042;DHT22;1026;51.460;7.252;2023-03-01T08:00:32;0.20;89.40
2042;DHT22;1026;51.460;7.252;2023-03-01T08:02:59;0.20;89.40
2042;DHT22;1026;51.460;7.252;2023-03-01T08:05:26;0.20;89.50
2042;DHT22;1026;51.460;7.252;2023-03-01T08:07:52;0.20;89.50
2042;DHT22;1026;51.460;7.252;2023-03-01T08:10:17;0.20;89.50
2042;DHT22;1026;51.460;7.252;2023-03-01T08:12:43;0.20;89.40
2042;DHT22;1026;51.460;7.252;2023-03-01T08:15:09;0.20;89.10
2042;DHT22;1026;51.460;7.252;2023-03-01T08:17:35;0.20;88.80
2042;DHT22;1026;51.460;7.252;2023-03-01T08:20:00;0.20;89.00
2042;DHT22;1026;51.460;7.252;2023-03-01T08:22:26;0.20;89.10
2042;DHT22;1026;51.460;7.252;2023-03-01T08:24:52;0.20;89.10
2042;DHT22;1026;51.460;7.252;2023-03-01T08:27:17;0.20;89.20
2042;DHT22;1026;51.460;7.252;2023-03-01T08:29:43;0.20;89.30
2042;DHT22;1026;51.460;7.252;2023-03-01T08:32:09;0.20;89.30
2042;DHT22;1026;51.460;7.252;2023-03-01T08:34:34;0.20;89.30
2042;DHT22;1026;51.460;7.252;2023-03-01T08:37:01;0.20;89.40
2042;DHT22;1026;51.460;7.252;2023-03-01T08:39:27;0.20;89.40
2042;DHT22;1026;51.460;7.252;2023-03-01T08:41:52;0.20;89.40
2042;DHT22;1026;51.460;7.252;2023-03-01T08:44:18;0.20;89.40
2042;DHT22;1026;51.460;7.252;2023-03-01T08:46:46;0.20;89.40
2042;DHT22;1026;51.460;7.252;2023-03-01T08:49:15;0.20;89.50
2042;DHT22;1026;51.460;7.252;2023-03-01T08:51:41;0.20;89.60
2042;DHT22;1026;51.460;7.252;2023-03-01T08:54:11;0.10;89.50
2042;DHT22;1026;51.460;7.252;2023-03-01T08:56:38;0.20;89.60
2042;DHT22;1026;51.460;7.252;2023-03-01T08:59:04;0.20;89.60
2042;DHT22;1026;51.460;7.252;2023-03-01T09:01:30;0.20;89.60
2042;DHT22;1026;51.460;7.252;2023-03-01T09:03:55;0.20;89.50
2042;DHT22;1026;51.460;7.252;2023-03-01T09:06:21;0.10;89.50
2042;DHT22;1026;51.460;7.252;2023-03-01T09:08:48;0.20;89.50
2042;DHT22;1026;51.460;7.252;2023-03-01T09:11:18;0.30;89.60
2042;DHT22;1026;51.460;7.252;2023-03-01T09:13:45;0.30;89.60
2042;DHT22;1026;51.460;7.252;2023-03-01T09:16:13;0.20;89.50
2042;DHT22;1026;51.460;7.252;2023-03-01T09:18:39;0.20;89.60
2042;DHT22;1026;51.460;7.252;2023-03-01T09:21:09;0.30;89.60
2042;DHT22;1026;51.460;7.252;2023-03-01T09:23:37;0.30;89.60
2042;DHT22;1026;51.460;7.252;2023-03-01T09:26:06;0.30;89.60
2042;DHT22;1026;51.460;7.252;2023-03-01T09:28:32;0.30;89.60
2042;DHT22;1026;51.460;7.252;2023-03-01T09:30:59;0.30;89.60
2042;DHT22;1026;51.460;7.252;2023-03-01T09:33:25;0.30;89.60
2042;DHT22;1026;51.460;7.252;2023-03-01T09:35:56;0.20;89.50
2042;DHT22;1026;51.460;7.252;2023-03-01T09:38:22;0.30;89.70
2042;DHT22;1026;51.460;7.252;2023-03-01T09:40:48;0.30;89.60
2042;DHT22;1026;51.460;7.252;2023-03-01T09:43:25;0.30;89.70
2042;DHT22;1026;51.460;7.252;2023-03-01T09:45:55;0.30;89.70
2042;DHT22;1026;51.460;7.252;2023-03-01T09:48:24;0.30;89.60
2042;DHT22;1026;51.460;7.252;2023-03-01T09:50:51;0.20;88.60
2042;DHT22;1026;51.460;7.252;2023-03-01T09:53:20;0.40;88.90
2042;DHT22;1026;51.460;7.252;2023-03-01T09:55:59;0.40;89.80
2042;DHT22;1026;51.460;7.252;2023-03-01T10:01:34;0.40;89.40
2042;DHT22;1026;51.460;7.252;2023-03-01T10:06:30;0.40;89.50
2042;DHT22;1026;51.460;7.252;2023-03-01T10:09:02;0.40;89.50
2042;DHT22;1026;51.460;7.252;2023-03-01T10:11:32;0.40;89.50
2042;DHT22;1026;51.460;7.252;2023-03-01T10:16:51;0.40;89.60
2042;DHT22;1026;51.460;7.252;2023-03-01T10:19:25;0.40;89.70
2042;DHT22;1026;51.460;7.252;2023-03-01T10:21:53;0.40;89.70
2042;DHT22;1026;51.460;7.252;2023-03-01T10:24:19;0.40;89.70
2042;DHT22;1026;51.460;7.252;2023-03-01T10:29:12;0.50;89.80
2042;DHT22;1026;51.460;7.252;2023-03-01T10:34:20;0.50;89.80
2042;DHT22;1026;51.460;7.252;2023-03-01T10:37:15;0.50;89.80
2042;DHT22;1026;51.460;7.252;2023-03-01T10:39:58;0.50;89.80
2042;DHT22;1026;51.460;7.252;2023-03-01T10:42:29;0.50;89.80
2042;DHT22;1026;51.460;7.252;2023-03-01T10:44:55;0.50;89.80
2042;DHT22;1026;51.460;7.252;2023-03-01T10:47:24;0.50;89.80
2042;DHT22;1026;51.460;7.252;2023-03-01T10:52:30;0.50;89.90
2042;DHT22;1026;51.460;7.252;2023-03-01T10:54:58;0.50;89.90
2042;DHT22;1026;51.460;7.252;2023-03-01T10:57:32;0.50;90.00
2042;DHT22;1026;51.460;7.252;2023-03-01T11:00:14;0.50;90.00
2042;DHT22;1026;51.460;7.252;2023-03-01T11:02:42;0.60;90.00
2042;DHT22;1026;51.460;7.252;2023-03-01T11:05:20;0.50;90.00
2042;DHT22;1026;51.460;7.252;2023-03-01T11:07:51;0.60;90.00
2042;DHT22;1026;51.460;7.252;2023-03-01T11:10:19;0.60;90.00
2042;DHT22;1026;51.460;7.252;2023-03-01T11:12:45;0.40;90.00
2042;DHT22;1026;51.460;7.252;2023-03-01T11:15:22;0.50;90.00
2042;DHT22;1026;51.460;7.252;2023-03-01T11:17:49;0.60;90.10
2042;DHT22;1026;51.460;7.252;2023-03-01T11:20:19;0.60;90.10
2042;DHT22;1026;51.460;7.252;2023-03-01T11:22:54;0.60;90.10
2042;DHT22;1026;51.460;7.252;2023-03-01T11:25:25;0.60;90.00
2042;DHT22;1026;51.460;7.252;2023-03-01T11:27:53;0.60;90.00
2042;DHT22;1026;51.460;7.252;2023-03-01T11:30:30;0.50;90.00
2042;DHT22;1026;51.460;7.252;2023-03-01T11:35:46;0.50;90.10
2042;DHT22;1026;51.460;7.252;2023-03-01T11:38:22;0.60;90.10
2042;DHT22;1026;51.460;7.252;2023-03-01T11:43:23;0.70;90.10
2042;DHT22;1026;51.460;7.252;2023-03-01T11:46:05;0.70;90.10
2042;DHT22;1026;51.460;7.252;2023-03-01T11:59:57;0.70;90.10
2042;DHT22;1026;51.460;7.252;2023-03-01T12:05:21;0.80;90.20
2042;DHT22;1026;51.460;7.252;2023-03-01T12:10:43;0.80;90.20
2042;DHT22;1026;51.460;7.252;2023-03-01T12:18:51;0.80;90.20
2042;DHT22;1026;51.460;7.252;2023-03-01T12:30:01;0.90;90.20
2042;DHT22;1026;51.460;7.252;2023-03-01T12:32:48;0.90;90.20
2042;DHT22;1026;51.460;7.252;2023-03-01T12:41:25;0.90;90.20
2042;DHT22;1026;51.460;7.252;2023-03-01T12:44:22;1.00;90.20
2042;DHT22;1026;51.460;7.252;2023-03-01T12:49:20;1.00;90.30
2042;DHT22;1026;51.460;7.252;2023-03-01T12:51:56;1.00;90.30
2042;DHT22;1026;51.460;7.252;2023-03-01T12:54:30;1.00;90.30
2042;DHT22;1026;51.460;7.252;2023-03-01T12:57:05;1.00;90.30
2042;DHT22;1026;51.460;7.252;2023-03-01T12:59:43;1.00;90.30
2042;DHT22;1026;51.460;7.252;2023-03-01T13:02:16;1.00;90.30
2042;DHT22;1026;51.460;7.252;2023-03-01T13:07:50;1.10;90.30
2042;DHT22;1026;51.460;7.252;2023-03-01T13:10:39;1.10;90.30
2042;DHT22;1026;51.460;7.252;2023-03-01T13:13:22;1.10;90.30
2042;DHT22;1026;51.460;7.252;2023-03-01T13:15:50;1.10;90.30
2042;DHT22;1026;51.460;7.252;2023-03-01T13:20:47;1.20;90.30
2042;DHT22;1026;51.460;7.252;2023-03-01T13:23:24;1.20;90.30
2042;DHT22;1026;51.460;7.252;2023-03-01T13:31:03;1.20;90.30
2042;DHT22;1026;51.460;7.252;2023-03-01T13:35:56;1.20;90.30
2042;DHT22;1026;51.460;7.252;2023-03-01T13:44:21;1.30;90.30
2042;DHT22;1026;51.460;7.252;2023-03-01T13:46:48;1.20;90.30
2042;DHT22;1026;51.460;7.252;2023-03-01T13:49:16;1.30;90.30
2042;DHT22;1026;51.460;7.252;2023-03-01T13:51:47;1.30;90.20
2042;DHT22;1026;51.460;7.252;2023-03-01T13:54:15;1.40;90.20
2042;DHT22;1026;51.460;7.252;2023-03-01T13:56:43;1.40;90.20
2042;DHT22;1026;51.460;7.252;2023-03-01T13:59:15;1.40;90.20
2042;DHT22;1026;51.460;7.252;2023-03-01T14:01:41;1.40;90.20
2042;DHT22;1026;51.460;7.252;2023-03-01T14:04:23;1.40;90.20
2042;DHT22;1026;51.460;7.252;2023-03-01T14:06:51;1.40;90.20
2042;DHT22;1026;51.460;7.252;2023-03-01T14:09:27;1.40;90.20
2042;DHT22;1026;51.460;7.252;2023-03-01T14:14:51;1.50;90.20
2042;DHT22;1026;51.460;7.252;2023-03-01T14:17:29;1.50;90.30
2042;DHT22;1026;51.460;7.252;2023-03-01T14:19:58;1.50;90.30
2042;DHT22;1026;51.460;7.252;2023-03-01T14:24:58;1.50;90.30
2042;DHT22;1026;51.460;7.252;2023-03-01T14:27:28;1.40;90.20
2042;DHT22;1026;51.460;7.252;2023-03-01T14:29:59;1.50;90.30
2042;DHT22;1026;51.460;7.252;2023-03-01T14:32:27;1.50;90.30
2042;DHT22;1026;51.460;7.252;2023-03-01T14:34:54;1.50;90.30
2042;DHT22;1026;51.460;7.252;2023-03-01T14:37:25;1.50;90.30
2042;DHT22;1026;51.460;7.252;2023-03-01T14:39:51;1.40;90.60
2042;DHT22;1026;51.460;7.252;2023-03-01T14:42:18;1.60;90.30
2042;DHT22;1026;51.460;7.252;2023-03-01T14:44:47;1.60;90.30
2042;DHT22;1026;51.460;7.252;2023-03-01T14:47:18;1.60;90.30
2042;DHT22;1026;51.460;7.252;2023-03-01T14:49:45;1.60;90.30
2042;DHT22;1026;51.460;7.252;2023-03-01T14:52:21;1.60;90.30
2042;DHT22;1026;51.460;7.252;2023-03-01T14:54:50;1.50;90.20
2042;DHT22;1026;51.460;7.252;2023-03-01T14:57:21;1.50;90.20
2042;DHT22;1026;51.460;7.252;2023-03-01T14:59:47;1.60;90.20
2042;DHT22;1026;51.460;7.252;2023-03-01T15:02:17;1.60;90.20
2042;DHT22;1026;51.460;7.252;2023-03-01T15:04:47;1.70;90.20
2042;DHT22;1026;51.460;7.252;2023-03-01T15:07:14;1.70;90.30
2042;DHT22;1026;51.460;7.252;2023-03-01T15:09:41;1.70;90.30
2042;DHT22;1026;51.460;7.252;2023-03-01T15:12:38;1.70;90.30
2042;DHT22;1026;51.460;7.252;2023-03-01T15:17:52;1.70;90.30
2042;DHT22;1026;51.460;7.252;2023-03-01T15:20:22;1.70;90.30
2042;DHT22;1026;51.460;7.252;2023-03-01T15:22:51;1.70;90.30
2042;DHT22;1026;51.460;7.252;2023-03-01T15:25:19;1.70;90.20
2042;DHT22;1026;51.460;7.252;2023-03-01T15:27:47;1.70;90.20
2042;DHT22;1026;51.460;7.252;2023-03-01T15:30:21;1.70;90.30
2042;DHT22;1026;51.460;7.252;2023-03-01T15:32:47;1.70;90.20
2042;DHT22;1026;51.460;7.252;2023-03-01T15:35:32;1.80;90.30
2042;DHT22;1026;51.460;7.252;2023-03-01T15:37:58;1.80;90.60
2042;DHT22;1026;51.460;7.252;2023-03-01T15:40:27;1.80;90.30
2042;DHT22;1026;51.460;7.252;2023-03-01T15:43:05;1.80;90.30
2042;DHT22;1026;51.460;7.252;2023-03-01T15:45:33;1.80;90.30
2042;DHT22;1026;51.460;7.252;2023-03-01T15:48:17;1.80;90.30
2042;DHT22;1026;51.460;7.252;2023-03-01T15:50:43;1.70;90.20
2042;DHT22;1026;51.460;7.252;2023-03-01T15:53:13;1.80;90.30
2042;DHT22;1026;51.460;7.252;2023-03-01T15:55:39;1.80;90.30
2042;DHT22;1026;51.460;7.252;2023-03-01T16:00:37;1.90;90.30
2042;DHT22;1026;51.460;7.252;2023-03-01T16:03:03;1.90;90.30
2042;DHT22;1026;51.460;7.252;2023-03-01T16:05:31;1.90;90.30
2042;DHT22;1026;51.460;7.252;2023-03-01T16:07:57;1.90;90.30
2042;DHT22;1026;51.460;7.252;2023-03-01T16:10:23;1.90;90.30
2042;DHT22;1026;51.460;7.252;2023-03-01T16:12:50;1.90;90.30
2042;DHT22;1026;51.460;7.252;2023-03-01T16:15:29;1.90;90.30
2042;DHT22;1026;51.460;7.252;2023-03-01T16:17:55;1.80;90.20
2042;DHT22;1026;51.460;7.252;2023-03-01T16:20:23;1.90;90.30
2042;DHT22;1026;51.460;7.252;2023-03-01T16:22:50;1.90;90.30
2042;DHT22;1026;51.460;7.252;2023-03-01T16:25:18;1.90;90.30
2042;DHT22;1026;51.460;7.252;2023-03-01T16:27:45;1.90;90.30
2042;DHT22;1026;51.460;7.252;2023-03-01T16:30:12;1.90;90.30
2042;DHT22;1026;51.460;7.252;2023-03-01T16:32:41;1.90;90.30
2042;DHT22;1026;51.460;7.252;2023-03-01T16:35:09;2.00;90.30
2042;DHT22;1026;51.460;7.252;2023-03-01T16:37:42;2.00;90.30
2042;DHT22;1026;51.460;7.252;2023-03-01T16:40:18;1.80;90.20
2042;DHT22;1026;51.460;7.252;2023-03-01T16:42:44;2.00;90.30
2042;DHT22;1026;51.460;7.252;2023-03-01T16:45:10;2.00;90.30
2042;DHT22;1026;51.460;7.252;2023-03-01T16:47:36;2.00;90.20
2042;DHT22;1026;51.460;7.252;2023-03-01T16:50:02;1.90;90.20
2042;DHT22;1026;51.460;7.252;2023-03-01T16:52:28;2.00;90.30
2042;DHT22;1026;51.460;7.252;2023-03-01T16:54:53;2.00;90.20
2042;DHT22;1026;51.460;7.252;2023-03-01T16:57:19;2.00;90.30
2042;DHT22;1026;51.460;7.252;2023-03-01T16:59:45;2.00;90.20
2042;DHT22;1026;51.460;7.252;2023-03-01T17:02:12;2.00;90.20
2042;DHT22;1026;51.460;7.252;2023-03-01T17:04:39;2.00;90.30
2042;DHT22;1026;51.460;7.252;2023-03-01T17:07:05;2.00;90.30
2042;DHT22;1026;51.460;7.252;2023-03-01T17:09:35;2.00;90.20
2042;DHT22;1026;51.460;7.252;2023-03-01T17:12:01;2.00;90.30
2042;DHT22;1026;51.460;7.252;2023-03-01T17:14:27;2.00;90.30
2042;DHT22;1026;51.460;7.252;2023-03-01T17:16:52;2.00;90.20
2042;DHT22;1026;51.460;7.252;2023-03-01T17:19:18;2.00;90.20
2042;DHT22;1026;51.460;7.252;2023-03-01T17:21:44;2.00;90.20
2042;DHT22;1026;51.460;7.252;2023-03-01T17:24:11;2.00;90.20
2042;DHT22;1026;51.460;7.252;2023-03-01T17:26:38;2.10;90.30
2042;DHT22;1026;51.460;7.252;2023-03-01T17:29:04;2.10;90.30
2042;DHT22;1026;51.460;7.252;2023-03-01T17:31:31;2.10;90.20
2042;DHT22;1026;51.460;7.252;2023-03-01T17:33:56;2.10;90.30
2042;DHT22;1026;51.460;7.252;2023-03-01T17:36:22;2.10;90.20
2042;DHT22;1026;51.460;7.252;2023-03-01T17:38:48;2.10;90.30
2042;DHT22;1026;51.460;7.252;2023-03-01T17:41:14;2.10;90.30
2042;DHT22;1026;51.460;7.252;2023-03-01T17:43:44;2.10;90.30
2042;DHT22;1026;51.460;7.252;2023-03-01T17:46:10;2.10;90.20
2042;DHT22;1026;51.460;7.252;2023-03-01T17:48:36;2.10;90.20
2042;DHT22;1026;51.460;7.252;2023-03-01T17:51:06;2.10;90.20
2042;DHT22;1026;51.460;7.252;2023-03-01T17:53:33;2.10;90.20
2042;DHT22;1026;51.460;7.252;2023-03-01T17:56:01;2.10;90.20
2042;DHT22;1026;51.460;7.252;2023-03-01T17:58:28;2.10;90.30
2042;DHT22;1026;51.460;7.252;2023-03-01T18:00:53;2.10;90.30